Time;durP1;ratioP1;P1;durP2;ratioP2;P2;SDS_P1;SDS_P2;PMS_P1;PMS_P2;Temp;Humidity;BMP_temperature;BMP_pressure;BME280_temperature;BME280_humidity;BME280_pressure;Samples;Min_cycle;Max_cycle;Signal;HPM_P1;HPM_P2
2021/08/04 00:02:12;;;;;;;19.70;18.70;;;;;;;;;;5094598;28;20413;-84
2021/08/04 00:04:39;;;;;;;20.90;19.47;;;;;;;;;;5094748;28;20440;-84
2021/08/04 00:07:07;;;;;;;20.87;19.53;;;;;;;;;;5093597;28;20901;-84
2021/08/04 00:09:35;;;;;;;20.87;19.77;;;;;;;;;;5095408;28;20458;-84
2021/08/04 00:12:05;;;;;;;20.20;19.00;;;;;;;;;;5094605;28;20420;-84
2021/08/04 00:14:32;;;;;;;22.00;20.90;;;;;;;;;;5094605;28;20497;-84
2021/08/04 00:16:59;;;;;;;21.47;20.27;;;;;;;;;;5094539;28;20758;-84
2021/08/04 00:19:27;;;;;;;22.37;20.50;;;;;;;;;;5094425;28;20424;-84
2021/08/04 00:21:54;;;;;;;21.30;20.20;;;;;;;;;;5094589;28;20409;-84
2021/08/04 00:24:22;;;;;;;20.63;19.43;;;;;;;;;;5094199;28;20440;-84
2021/08/04 00:26:49;;;;;;;20.40;19.30;;;;;;;;;;5094160;28;20474;-84
2021/08/04 00:29:18;;;;;;;20.67;19.37;;;;;;;;;;5094083;28;20465;-83
2021/08/04 00:31:45;;;;;;;20.60;19.30;;;;;;;;;;5094352;28;20430;-84
2021/08/04 00:34:12;;;;;;;21.37;20.07;;;;;;;;;;5094347;28;20433;-84
2021/08/04 00:36:40;;;;;;;21.40;20.30;;;;;;;;;;5094319;28;20444;-84
2021/08/04 00:39:07;;;;;;;20.47;19.37;;;;;;;;;;5094181;28;20423;-84
2021/08/04 00:41:38;;;;;;;20.47;19.37;;;;;;;;;;5094144;28;20779;-84
2021/08/04 00:44:05;;;;;;;20.23;19.03;;;;;;;;;;5094085;28;20960;-84
2021/08/04 00:46:39;;;;;;;21.93;20.63;;;;;;;;;;5093653;28;20481;-84
2021/08/04 00:49:07;;;;;;;20.10;18.80;;;;;;;;;;5094218;28;20477;-84
2021/08/04 00:51:34;;;;;;;20.37;19.37;;;;;;;;;;5094134;28;20434;-84
2021/08/04 00:54:03;;;;;;;20.60;19.47;;;;;;;;;;5094091;28;20440;-84
2021/08/04 00:56:31;;;;;;;21.13;19.87;;;;;;;;;;5093885;28;20455;-84
2021/08/04 00:58:58;;;;;;;20.80;19.70;;;;;;;;;;5093359;28;20833;-84
2021/08/04 01:01:29;;;;;;;21.47;20.37;;;;;;;;;;5093902;28;20417;-84
2021/08/04 01:04:05;;;;;;;21.37;20.23;;;;;;;;;;5093888;28;20460;-84
2021/08/04 01:06:36;;;;;;;21.50;20.30;;;;;;;;;;5094153;28;20440;-84
2021/08/04 01:09:05;;;;;;;20.57;19.43;;;;;;;;;;5093880;28;20514;-84
2021/08/04 01:11:34;;;;;;;20.70;19.60;;;;;;;;;;5093571;28;20420;-84
2021/08/04 01:14:03;;;;;;;21.37;20.00;;;;;;;;;;5093941;28;20434;-84
2021/08/04 01:16:33;;;;;;;20.80;19.70;;;;;;;;;;5093989;28;20437;-84
2021/08/04 01:19:07;;;;;;;20.70;19.60;;;;;;;;;;5092716;28;20912;-84
2021/08/04 01:21:38;;;;;;;21.70;20.37;;;;;;;;;;5093976;28;20404;-84
2021/08/04 01:24:07;;;;;;;20.80;19.70;;;;;;;;;;5093823;28;20433;-84
2021/08/04 01:26:39;;;;;;;22.30;21.10;;;;;;;;;;5093349;28;20443;-84
2021/08/04 01:29:08;;;;;;;21.40;20.20;;;;;;;;;;5094062;28;20501;-84
2021/08/04 01:31:36;;;;;;;21.00;19.80;;;;;;;;;;5093457;28;20434;-84
2021/08/04 01:34:05;;;;;;;20.90;19.73;;;;;;;;;;5093823;28;20408;-84
2021/08/04 01:36:32;;;;;;;20.50;19.40;;;;;;;;;;5093555;28;20453;-84
2021/08/04 01:39:01;;;;;;;20.20;19.10;;;;;;;;;;5093657;28;20439;-84
2021/08/04 01:41:28;;;;;;;21.70;20.50;;;;;;;;;;5093401;28;20413;-84
2021/08/04 01:43:58;;;;;;;20.70;19.60;;;;;;;;;;5093349;28;20430;-84
2021/08/04 01:46:25;;;;;;;21.13;19.93;;;;;;;;;;5093388;28;20508;-84
2021/08/04 01:48:53;;;;;;;20.50;19.40;;;;;;;;;;5094175;28;20419;-84
2021/08/04 01:51:20;;;;;;;20.53;19.30;;;;;;;;;;5093539;28;20935;-84
2021/08/04 01:53:48;;;;;;;20.30;19.20;;;;;;;;;;5095352;28;20437;-84
2021/08/04 01:56:16;;;;;;;20.90;19.70;;;;;;;;;;5097276;28;20443;-84
2021/08/04 01:58:43;;;;;;;20.40;19.30;;;;;;;;;;5096803;28;20416;-84
2021/08/04 02:01:13;;;;;;;19.67;18.67;;;;;;;;;;5096931;28;20426;-84
2021/08/04 02:03:40;;;;;;;19.80;18.80;;;;;;;;;;5097669;28;20421;-84
2021/08/04 02:06:09;;;;;;;20.27;19.23;;;;;;;;;;5097233;28;20435;-84
2021/08/04 02:08:38;;;;;;;19.63;18.60;;;;;;;;;;5096753;28;20805;-84
2021/08/04 02:11:07;;;;;;;20.00;19.00;;;;;;;;;;5096643;28;20456;-84
2021/08/04 02:13:37;;;;;;;20.40;19.40;;;;;;;;;;5097174;28;20465;-84
2021/08/04 02:16:10;;;;;;;20.00;18.80;;;;;;;;;;5096669;28;20932;-85
2021/08/04 02:18:43;;;;;;;20.00;18.80;;;;;;;;;;5096833;28;20457;-85
2021/08/04 02:21:10;;;;;;;19.63;18.57;;;;;;;;;;5097111;28;20423;-85
2021/08/04 02:23:39;;;;;;;20.60;19.50;;;;;;;;;;5096816;28;20438;-85
2021/08/04 02:26:08;;;;;;;20.57;19.47;;;;;;;;;;5096580;28;20481;-85
2021/08/04 02:28:38;;;;;;;19.87;18.83;;;;;;;;;;5096559;28;20462;-85
2021/08/04 02:31:05;;;;;;;20.63;19.43;;;;;;;;;;5096471;28;20486;-85
2021/08/04 02:33:32;;;;;;;19.90;18.90;;;;;;;;;;5096518;28;20464;-85
2021/08/04 02:36:02;;;;;;;19.60;18.30;;;;;;;;;;5096327;28;20445;-84
2021/08/04 02:38:30;;;;;;;19.90;18.90;;;;;;;;;;5096626;28;20437;-85
2021/08/04 02:40:57;;;;;;;20.07;19.03;;;;;;;;;;5096733;28;20414;-85
2021/08/04 02:43:25;;;;;;;19.90;18.90;;;;;;;;;;5096542;28;20437;-86
2021/08/04 02:45:53;;;;;;;20.03;18.83;;;;;;;;;;5096046;28;20479;-85
2021/08/04 02:48:21;;;;;;;20.00;18.90;;;;;;;;;;5096211;28;20438;-85
2021/08/04 02:50:49;;;;;;;21.60;20.50;;;;;;;;;;5096391;28;20456;-85
2021/08/04 02:53:18;;;;;;;20.37;19.37;;;;;;;;;;5096281;28;20741;-85
2021/08/04 02:55:46;;;;;;;21.07;20.00;;;;;;;;;;5095951;28;20437;-85
2021/08/04 02:58:13;;;;;;;21.93;20.50;;;;;;;;;;5096212;28;20428;-85
2021/08/04 03:00:40;;;;;;;20.57;19.47;;;;;;;;;;5095851;28;20515;-85
2021/08/04 03:03:08;;;;;;;21.10;20.03;;;;;;;;;;5096082;28;20448;-85
2021/08/04 03:05:35;;;;;;;21.80;20.50;;;;;;;;;;5095910;28;20436;-85
2021/08/04 03:08:02;;;;;;;20.10;19.00;;;;;;;;;;5095745;28;20415;-85
2021/08/04 03:10:31;;;;;;;20.77;19.43;;;;;;;;;;5095971;28;20509;-84
2021/08/04 03:12:59;;;;;;;21.53;20.10;;;;;;;;;;5095616;28;20792;-85
2021/08/04 03:15:27;;;;;;;21.07;19.87;;;;;;;;;;5095901;28;20416;-85
2021/08/04 03:17:55;;;;;;;20.50;19.40;;;;;;;;;;5096010;28;20425;-85
2021/08/04 03:20:23;;;;;;;20.73;19.60;;;;;;;;;;5095563;28;20511;-85
2021/08/04 03:22:51;;;;;;;20.93;19.73;;;;;;;;;;5095830;28;20409;-85
2021/08/04 03:25:19;;;;;;;21.20;19.80;;;;;;;;;;5095486;28;20413;-85
2021/08/04 03:27:48;;;;;;;21.20;19.97;;;;;;;;;;5094598;28;20486;-85
2021/08/04 03:30:16;;;;;;;21.50;20.20;;;;;;;;;;5095446;28;20472;-85
2021/08/04 03:32:43;;;;;;;21.93;20.47;;;;;;;;;;5095640;28;20625;-85
2021/08/04 03:35:11;;;;;;;20.90;19.80;;;;;;;;;;5096331;28;20416;-85
2021/08/04 03:37:38;;;;;;;20.80;19.50;;;;;;;;;;5095363;28;20440;-85
2021/08/04 03:40:06;;;;;;;20.87;19.67;;;;;;;;;;5095686;28;20433;-85
2021/08/04 03:42:34;;;;;;;21.53;20.37;;;;;;;;;;5095491;28;20415;-85
2021/08/04 03:45:03;;;;;;;20.33;19.20;;;;;;;;;;5093766;28;21022;-85
2021/08/04 03:47:31;;;;;;;21.40;20.17;;;;;;;;;;5095090;28;20905;-85
2021/08/04 03:49:58;;;;;;;20.33;19.30;;;;;;;;;;5095073;28;20458;-85
2021/08/04 03:52:26;;;;;;;20.63;19.40;;;;;;;;;;5094993;28;20438;-85
2021/08/04 03:54:53;;;;;;;21.90;20.70;;;;;;;;;;5095247;28;20425;-85
2021/08/04 03:57:20;;;;;;;21.27;19.97;;;;;;;;;;5095301;28;20854;-85
2021/08/04 03:59:48;;;;;;;21.13;19.93;;;;;;;;;;5095078;28;20415;-85
2021/08/04 04:02:17;;;;;;;20.90;19.60;;;;;;;;;;5095108;28;20454;-85
2021/08/04 04:04:44;;;;;;;21.00;19.90;;;;;;;;;;5094753;28;20458;-85
2021/08/04 04:07:12;;;;;;;21.73;20.20;;;;;;;;;;5094785;28;20455;-85
2021/08/04 04:09:40;;;;;;;22.50;21.00;;;;;;;;;;5094505;28;20450;-85
2021/08/04 04:12:07;;;;;;;22.17;20.87;;;;;;;;;;5094957;28;20416;-85
2021/08/04 04:14:35;;;;;;;22.20;20.93;;;;;;;;;;5093684;28;20455;-85
2021/08/04 04:17:02;;;;;;;23.27;21.73;;;;;;;;;;5094518;28;20436;-85
2021/08/04 04:19:31;;;;;;;22.70;21.40;;;;;;;;;;5094837;28;20787;-85
2021/08/04 04:21:59;;;;;;;21.80;20.60;;;;;;;;;;5094816;28;20409;-84
2021/08/04 04:24:26;;;;;;;22.87;21.57;;;;;;;;;;5094676;28;20814;-85
2021/08/04 04:26:53;;;;;;;22.60;21.10;;;;;;;;;;5093602;28;20833;-85
2021/08/04 04:29:21;;;;;;;21.80;20.60;;;;;;;;;;5094562;28;20441;-85
2021/08/04 04:31:48;;;;;;;21.87;20.57;;;;;;;;;;5094613;28;20448;-85
2021/08/04 04:34:15;;;;;;;22.47;21.17;;;;;;;;;;5094381;28;21008;-85
2021/08/04 04:36:44;;;;;;;22.83;21.53;;;;;;;;;;5094520;28;20442;-85
2021/08/04 04:39:12;;;;;;;23.17;21.77;;;;;;;;;;5094357;28;20508;-85
2021/08/04 04:41:39;;;;;;;24.10;22.40;;;;;;;;;;5094376;28;20427;-85
2021/08/04 04:44:07;;;;;;;23.87;22.47;;;;;;;;;;5094488;28;20904;-86
2021/08/04 04:46:34;;;;;;;24.07;22.57;;;;;;;;;;5094191;28;20987;-86
2021/08/04 04:49:02;;;;;;;23.23;21.63;;;;;;;;;;5094706;28;20423;-86
2021/08/04 04:51:29;;;;;;;25.30;23.70;;;;;;;;;;5094395;28;20480;-85
2021/08/04 04:53:58;;;;;;;24.90;23.40;;;;;;;;;;5094418;28;20430;-84
2021/08/04 04:56:25;;;;;;;24.57;23.07;;;;;;;;;;5094120;28;20409;-86
2021/08/04 04:58:54;;;;;;;24.27;22.87;;;;;;;;;;5094210;28;20433;-86
2021/08/04 05:01:21;;;;;;;23.70;22.30;;;;;;;;;;5094618;28;20815;-87
2021/08/04 05:03:48;;;;;;;24.80;23.30;;;;;;;;;;5094066;28;20438;-86
2021/08/04 05:06:16;;;;;;;26.43;24.60;;;;;;;;;;5095253;28;20409;-87
2021/08/04 05:08:43;;;;;;;24.33;22.73;;;;;;;;;;5093344;28;20418;-87
2021/08/04 05:11:12;;;;;;;24.33;22.90;;;;;;;;;;5094264;28;20841;-87
2021/08/04 05:13:40;;;;;;;24.47;23.07;;;;;;;;;;5094207;28;20412;-86
2021/08/04 05:16:07;;;;;;;24.97;23.40;;;;;;;;;;5094393;28;20413;-86
2021/08/04 05:18:35;;;;;;;25.73;24.03;;;;;;;;;;5093959;28;20442;-87
2021/08/04 05:21:02;;;;;;;26.47;24.67;;;;;;;;;;5094433;28;20874;-87
2021/08/04 05:23:29;;;;;;;26.37;24.30;;;;;;;;;;5093923;28;20412;-86
2021/08/04 05:25:57;;;;;;;25.47;23.80;;;;;;;;;;5094203;28;20803;-87
2021/08/04 05:28:25;;;;;;;24.80;23.17;;;;;;;;;;5095590;28;20443;-86
2021/08/04 05:30:53;;;;;;;26.13;24.53;;;;;;;;;;5097734;28;20473;-87
2021/08/04 05:33:20;;;;;;;26.00;24.37;;;;;;;;;;5097685;28;20408;-86
2021/08/04 05:35:48;;;;;;;25.97;24.47;;;;;;;;;;5097023;28;20415;-86
2021/08/04 05:38:15;;;;;;;26.03;24.50;;;;;;;;;;5098288;28;20428;-86
2021/08/04 05:40:43;;;;;;;26.20;24.40;;;;;;;;;;5097798;28;20448;-87
2021/08/04 05:43:10;;;;;;;25.93;24.33;;;;;;;;;;5097640;28;20404;-86
2021/08/04 05:45:40;;;;;;;26.20;24.33;;;;;;;;;;5097580;28;20489;-87
2021/08/04 05:48:07;;;;;;;26.07;24.47;;;;;;;;;;5097906;28;20858;-86
2021/08/04 05:50:35;;;;;;;26.17;24.50;;;;;;;;;;5096461;28;20523;-85
2021/08/04 05:53:03;;;;;;;25.63;23.93;;;;;;;;;;5097529;28;20411;-86
2021/08/04 05:55:30;;;;;;;25.40;23.80;;;;;;;;;;5097684;28;20457;-85
2021/08/04 05:57:57;;;;;;;25.00;23.40;;;;;;;;;;5097523;28;20434;-85
2021/08/04 06:00:25;;;;;;;25.17;23.67;;;;;;;;;;5097178;28;20417;-86
2021/08/04 06:02:56;;;;;;;26.10;24.40;;;;;;;;;;5097418;28;20741;-85
2021/08/04 06:05:23;;;;;;;25.97;24.07;;;;;;;;;;5097791;28;20427;-86
2021/08/04 06:07:50;;;;;;;26.50;24.73;;;;;;;;;;5097084;28;20873;-86
2021/08/04 06:10:18;;;;;;;26.07;24.30;;;;;;;;;;5097357;28;20462;-86
2021/08/04 06:12:45;;;;;;;25.23;23.73;;;;;;;;;;5097268;28;20415;-85
2021/08/04 06:15:13;;;;;;;25.63;24.03;;;;;;;;;;5097094;28;20420;-85
2021/08/04 06:17:41;;;;;;;26.10;24.40;;;;;;;;;;5096781;28;20432;-85
2021/08/04 06:20:11;;;;;;;27.03;25.30;;;;;;;;;;5097147;28;20439;-86
2021/08/04 06:22:38;;;;;;;26.20;24.50;;;;;;;;;;5096051;28;20433;-85
2021/08/04 06:25:06;;;;;;;25.87;24.37;;;;;;;;;;5096920;28;20448;-86
2021/08/04 06:27:33;;;;;;;27.33;25.43;;;;;;;;;;5096917;28;20791;-85
2021/08/04 06:30:01;;;;;;;25.90;24.40;;;;;;;;;;5096691;28;21031;-85
2021/08/04 06:32:28;;;;;;;25.10;23.60;;;;;;;;;;5096424;28;20962;-85
2021/08/04 06:34:56;;;;;;;25.20;23.50;;;;;;;;;;5095468;28;20943;-85
2021/08/04 06:37:25;;;;;;;26.17;24.50;;;;;;;;;;5096708;28;20415;-85
2021/08/04 06:39:52;;;;;;;24.60;23.10;;;;;;;;;;5095315;28;20939;-85
2021/08/04 06:42:20;;;;;;;25.33;23.30;;;;;;;;;;5096470;28;20931;-85
2021/08/04 06:44:47;;;;;;;24.57;22.93;;;;;;;;;;5096145;28;20453;-86
2021/08/04 06:47:15;;;;;;;25.07;23.27;;;;;;;;;;5096563;28;20439;-85
2021/08/04 06:49:42;;;;;;;25.70;24.20;;;;;;;;;;5095374;28;20478;-85
2021/08/04 06:52:09;;;;;;;24.87;23.40;;;;;;;;;;5095019;28;20477;-86
2021/08/04 06:54:39;;;;;;;25.17;23.67;;;;;;;;;;5095393;28;20427;-86
2021/08/04 06:57:06;;;;;;;25.40;23.77;;;;;;;;;;5096194;28;20428;-86
2021/08/04 06:59:33;;;;;;;24.47;23.03;;;;;;;;;;5095496;28;20404;-86
2021/08/04 07:02:02;;;;;;;25.70;23.90;;;;;;;;;;5096327;28;20859;-86
2021/08/04 07:04:30;;;;;;;25.57;23.87;;;;;;;;;;5096298;28;20430;-86
2021/08/04 07:06:58;;;;;;;23.40;22.00;;;;;;;;;;5095989;28;20469;-85
2021/08/04 07:09:26;;;;;;;23.80;22.40;;;;;;;;;;5096135;28;20445;-86
2021/08/04 07:11:55;;;;;;;23.77;22.27;;;;;;;;;;5078410;28;20543;-86
2021/08/04 07:14:22;;;;;;;24.13;22.63;;;;;;;;;;5096040;28;20435;-86
2021/08/04 07:16:50;;;;;;;23.70;22.30;;;;;;;;;;5096062;28;20439;-85
2021/08/04 07:19:18;;;;;;;26.07;24.27;;;;;;;;;;5095892;28;20414;-85
2021/08/04 07:21:45;;;;;;;24.47;22.90;;;;;;;;;;5095993;28;20822;-87
2021/08/04 07:24:13;;;;;;;25.30;23.80;;;;;;;;;;5096053;28;20464;-86
2021/08/04 07:26:41;;;;;;;24.93;23.20;;;;;;;;;;5095867;28;20837;-86
2021/08/04 07:29:11;;;;;;;22.97;21.60;;;;;;;;;;5095750;28;20416;-86
2021/08/04 07:31:38;;;;;;;22.80;21.30;;;;;;;;;;5095507;28;20489;-88
2021/08/04 07:34:06;;;;;;;24.43;23.00;;;;;;;;;;5095663;28;20467;-88
2021/08/04 07:36:33;;;;;;;24.57;23.13;;;;;;;;;;5094926;28;20438;-88
2021/08/04 07:39:00;;;;;;;23.90;22.30;;;;;;;;;;5096650;28;20454;-86
2021/08/04 07:41:28;;;;;;;23.40;22.00;;;;;;;;;;5096060;28;20905;-87
2021/08/04 07:43:55;;;;;;;23.43;22.13;;;;;;;;;;5095681;28;20417;-87
2021/08/04 07:46:24;;;;;;;24.13;22.30;;;;;;;;;;5095101;28;20478;-87
2021/08/04 07:48:51;;;;;;;24.90;23.40;;;;;;;;;;5095237;28;20423;-85
2021/08/04 07:51:19;;;;;;;22.87;21.57;;;;;;;;;;5094371;28;20478;-85
2021/08/04 07:53:46;;;;;;;22.50;21.17;;;;;;;;;;5095145;28;20473;-85
2021/08/04 07:56:19;;;;;;;22.37;20.83;;;;;;;;;;5094036;28;20433;-85
2021/08/04 07:58:46;;;;;;;24.40;22.80;;;;;;;;;;5095108;28;20508;-85
2021/08/04 08:01:14;;;;;;;23.00;21.67;;;;;;;;;;5095053;28;20422;-85
2021/08/04 08:03:42;;;;;;;22.63;21.33;;;;;;;;;;5096130;28;20439;-85
2021/08/04 08:06:10;;;;;;;23.40;21.90;;;;;;;;;;5098742;28;20411;-84
2021/08/04 08:08:37;;;;;;;22.70;21.43;;;;;;;;;;5100025;28;20404;-84
2021/08/04 08:11:05;;;;;;;23.40;22.00;;;;;;;;;;5105581;28;20438;-85
2021/08/04 08:13:32;;;;;;;23.70;22.30;;;;;;;;;;5104226;28;20415;-85
2021/08/04 08:16:00;;;;;;;23.87;22.47;;;;;;;;;;5094828;28;20441;-85
2021/08/04 08:18:27;;;;;;;23.10;21.70;;;;;;;;;;5094950;28;20445;-91
2021/08/04 08:20:56;;;;;;;22.80;21.40;;;;;;;;;;5095099;28;20929;-89
2021/08/04 08:23:24;;;;;;;23.10;21.40;;;;;;;;;;5093907;28;20941;-88
2021/08/04 08:25:51;;;;;;;23.53;22.03;;;;;;;;;;5094953;28;20830;-90
2021/08/04 08:28:19;;;;;;;23.60;22.10;;;;;;;;;;5093946;28;20414;-89
2021/08/04 08:30:47;;;;;;;24.30;22.77;;;;;;;;;;5094535;28;20486;-90
2021/08/04 08:33:14;;;;;;;23.20;21.90;;;;;;;;;;5094947;28;20451;-86
2021/08/04 08:35:42;;;;;;;22.67;21.30;;;;;;;;;;5094826;28;20773;-85
2021/08/04 08:38:11;;;;;;;22.83;21.47;;;;;;;;;;5093233;28;20443;-85
2021/08/04 08:40:38;;;;;;;23.23;21.83;;;;;;;;;;5094455;28;20791;-85
2021/08/04 08:43:06;;;;;;;23.40;22.00;;;;;;;;;;5094325;28;20469;-85
2021/08/04 08:45:33;;;;;;;23.07;21.70;;;;;;;;;;5094251;28;20489;-86
2021/08/04 08:48:00;;;;;;;22.57;21.17;;;;;;;;;;5094697;28;20405;-84
2021/08/04 08:50:28;;;;;;;22.13;20.83;;;;;;;;;;5094883;28;20425;-84
2021/08/04 08:52:56;;;;;;;23.20;21.80;;;;;;;;;;5094110;28;20479;-84
2021/08/04 08:55:25;;;;;;;21.57;20.17;;;;;;;;;;5093148;28;20503;-84
2021/08/04 08:57:53;;;;;;;22.50;21.17;;;;;;;;;;5093740;28;20412;-83
2021/08/04 09:00:20;;;;;;;22.47;21.17;;;;;;;;;;5093940;28;20419;-83
2021/08/04 09:02:47;;;;;;;22.70;21.30;;;;;;;;;;5096010;28;20457;-83
2021/08/04 09:05:16;;;;;;;22.87;21.30;;;;;;;;;;5098103;28;20437;-83
2021/08/04 09:07:44;;;;;;;22.77;21.27;;;;;;;;;;5097740;28;20456;-88
2021/08/04 09:10:26;;;;;;;21.50;20.30;;;;;;;;;;5098230;28;20430;-84
2021/08/04 09:12:55;;;;;;;23.23;21.93;;;;;;;;;;5097677;28;20459;-83
2021/08/04 09:15:30;;;;;;;23.83;22.20;;;;;;;;;;5098104;28;20434;-83
2021/08/04 09:18:06;;;;;;;22.33;20.87;;;;;;;;;;5096709;28;20454;-83
2021/08/04 09:20:41;;;;;;;23.43;22.10;;;;;;;;;;5097881;28;20453;-83
2021/08/04 09:23:12;;;;;;;23.10;21.63;;;;;;;;;;5097672;28;20940;-83
2021/08/04 09:25:41;;;;;;;22.50;21.20;;;;;;;;;;5098739;28;20429;-94
2021/08/04 09:28:09;;;;;;;23.20;21.80;;;;;;;;;;5098990;28;20804;-89
2021/08/04 09:30:37;;;;;;;23.73;22.30;;;;;;;;;;5098890;28;20438;-88
2021/08/04 09:33:12;;;;;;;23.03;21.63;;;;;;;;;;5097018;28;20461;-89
2021/08/04 09:35:46;;;;;;;22.53;21.13;;;;;;;;;;5098213;28;20435;-89
2021/08/04 09:38:14;;;;;;;22.83;21.43;;;;;;;;;;5098114;28;20438;-88
2021/08/04 09:40:43;;;;;;;23.57;22.03;;;;;;;;;;5098768;28;20463;-89
2021/08/04 09:43:11;;;;;;;21.77;20.57;;;;;;;;;;5098178;28;20449;-86
2021/08/04 09:45:40;;;;;;;22.83;21.53;;;;;;;;;;5096683;28;20437;-88
2021/08/04 09:48:09;;;;;;;22.30;21.10;;;;;;;;;;5097920;28;20493;-89
2021/08/04 09:50:46;;;;;;;22.33;21.13;;;;;;;;;;5097881;28;20620;-89
2021/08/04 09:53:19;;;;;;;22.97;21.53;;;;;;;;;;5097704;28;20478;-88
2021/08/04 09:56:03;;;;;;;22.00;20.70;;;;;;;;;;5098420;28;20500;-93
2021/08/04 09:58:31;;;;;;;23.00;21.70;;;;;;;;;;5097267;28;20420;-90
2021/08/04 10:01:00;;;;;;;22.13;20.93;;;;;;;;;;5097663;28;20792;-90
2021/08/04 10:03:28;;;;;;;22.23;20.97;;;;;;;;;;5097304;28;20873;-92
2021/08/04 10:05:55;;;;;;;22.63;21.33;;;;;;;;;;5097582;28;20414;-90
2021/08/04 10:08:23;;;;;;;23.07;21.40;;;;;;;;;;5097671;28;20439;-90
2021/08/04 10:10:51;;;;;;;21.90;20.70;;;;;;;;;;5097290;28;20447;-90
2021/08/04 10:13:21;;;;;;;22.90;21.60;;;;;;;;;;5097159;28;20489;-91
2021/08/04 10:15:50;;;;;;;22.17;20.87;;;;;;;;;;5097307;28;20434;-91
2021/08/04 10:18:19;;;;;;;23.17;21.63;;;;;;;;;;5096631;28;20440;-91
2021/08/04 10:20:48;;;;;;;22.97;21.67;;;;;;;;;;5097131;28;20449;-93
2021/08/04 10:23:16;;;;;;;22.97;21.57;;;;;;;;;;5097479;28;20430;-91
2021/08/04 10:25:45;;;;;;;22.00;20.70;;;;;;;;;;5097019;28;21007;-93
2021/08/04 10:28:12;;;;;;;22.80;21.50;;;;;;;;;;5096845;28;20773;-92
2021/08/04 10:30:43;;;;;;;22.50;20.87;;;;;;;;;;5097175;28;20439;-91
2021/08/04 10:33:10;;;;;;;23.80;22.33;;;;;;;;;;5096614;28;20529;-93
2021/08/04 10:35:38;;;;;;;21.67;20.37;;;;;;;;;;5095963;28;20454;-94
2021/08/04 10:38:06;;;;;;;22.67;21.37;;;;;;;;;;5096703;28;20466;-91
2021/08/04 10:40:34;;;;;;;22.13;20.73;;;;;;;;;;5096819;28;20435;-91
2021/08/04 10:43:01;;;;;;;23.20;21.70;;;;;;;;;;5096429;28;20434;-91
2021/08/04 10:45:33;;;;;;;21.90;20.60;;;;;;;;;;5096464;28;20483;-90
2021/08/04 10:48:15;;;;;;;22.83;21.30;;;;;;;;;;5096694;28;20438;-91
2021/08/04 10:51:03;;;;;;;23.50;21.63;;;;;;;;;;5096625;28;20815;-91
2021/08/04 10:53:31;;;;;;;21.83;20.50;;;;;;;;;;5096153;28;20495;-91
2021/08/04 10:55:58;;;;;;;22.00;20.47;;;;;;;;;;5096309;28;20429;-91
2021/08/04 10:58:26;;;;;;;22.50;21.10;;;;;;;;;;5096570;28;20442;-91
2021/08/04 11:00:54;;;;;;;22.40;21.10;;;;;;;;;;5096049;28;20925;-91
2021/08/04 11:03:45;;;;;;;22.27;20.97;;;;;;;;;;5096359;28;20451;-91
2021/08/04 11:06:14;;;;;;;22.60;21.10;;;;;;;;;;5096527;28;20853;-90
2021/08/04 11:08:46;;;;;;;22.20;20.80;;;;;;;;;;5096141;28;20936;-91
2021/08/04 11:11:28;;;;;;;24.50;23.10;;;;;;;;;;5096395;28;20454;-91
2021/08/04 11:13:56;;;;;;;22.40;21.10;;;;;;;;;;5096451;28;20498;-91
2021/08/04 11:16:27;;;;;;;22.63;21.37;;;;;;;;;;5096044;28;20455;-90
2021/08/04 11:19:02;;;;;;;25.17;23.00;;;;;;;;;;5096133;28;20936;-91
2021/08/04 11:21:31;;;;;;;22.93;21.53;;;;;;;;;;5095989;28;20462;-92
2021/08/04 11:23:59;;;;;;;23.67;22.27;;;;;;;;;;5096125;28;20422;-91
2021/08/04 11:26:28;;;;;;;22.47;21.17;;;;;;;;;;5094957;28;20511;-92
2021/08/04 11:28:57;;;;;;;23.00;21.60;;;;;;;;;;5096050;28;20416;-92
2021/08/04 11:31:24;;;;;;;24.00;22.60;;;;;;;;;;5095906;28;20443;-92
2021/08/04 11:33:52;;;;;;;22.50;21.20;;;;;;;;;;5095480;28;20483;-91
2021/08/04 11:36:21;;;;;;;23.43;21.87;;;;;;;;;;5095886;28;20441;-91
2021/08/04 11:38:57;;;;;;;23.40;21.97;;;;;;;;;;5095788;28;20463;-93
2021/08/04 11:41:27;;;;;;;22.93;21.53;;;;;;;;;;5095681;28;20466;-91
2021/08/04 11:44:01;;;;;;;23.10;21.80;;;;;;;;;;5095496;28;20471;-91
2021/08/04 11:46:34;;;;;;;23.30;21.90;;;;;;;;;;5095921;28;20479;-96
2021/08/04 11:49:01;;;;;;;22.90;21.60;;;;;;;;;;5096021;28;20497;-92
2021/08/04 11:51:32;;;;;;;23.70;22.20;;;;;;;;;;5096166;28;20435;-95
2021/08/04 11:54:01;;;;;;;23.47;21.97;;;;;;;;;;5095800;28;20976;-90
2021/08/04 11:56:29;;;;;;;23.10;21.50;;;;;;;;;;5096315;28;20438;-86
2021/08/04 11:59:04;;;;;;;22.57;21.17;;;;;;;;;;5095068;28;20436;-93
2021/08/04 12:01:31;;;;;;;22.97;21.57;;;;;;;;;;5095156;28;20451;-96
2021/08/04 12:04:10;;;;;;;22.07;20.87;;;;;;;;;;5077433;28;20829;-89
2021/08/04 12:06:38;;;;;;;22.70;21.40;;;;;;;;;;5095026;28;20909;-92
2021/08/04 12:09:20;;;;;;;21.63;20.53;;;;;;;;;;5095019;28;20512;-93
2021/08/04 12:11:48;;;;;;;22.57;21.27;;;;;;;;;;5094168;28;20451;-92
2021/08/04 12:14:18;;;;;;;22.57;21.17;;;;;;;;;;5096015;28;21086;-90
2021/08/04 12:16:46;;;;;;;23.40;21.67;;;;;;;;;;5094159;28;20913;-91
2021/08/04 12:19:26;;;;;;;21.90;20.50;;;;;;;;;;5095569;28;20892;-89
2021/08/04 12:21:54;;;;;;;22.07;20.67;;;;;;;;;;5094986;28;20475;-89
2021/08/04 12:24:23;;;;;;;23.30;21.80;;;;;;;;;;5094908;28;20478;-90
2021/08/04 12:26:50;;;;;;;22.40;21.10;;;;;;;;;;5094844;28;20472;-89
2021/08/04 12:29:19;;;;;;;22.33;21.03;;;;;;;;;;5093609;28;20786;-90
2021/08/04 12:32:02;;;;;;;22.97;21.50;;;;;;;;;;5095056;28;20479;-90
2021/08/04 12:34:30;;;;;;;22.93;21.47;;;;;;;;;;5094688;28;20484;-90
2021/08/04 12:36:58;;;;;;;22.50;21.10;;;;;;;;;;5094139;28;20461;-90
2021/08/04 12:39:28;;;;;;;21.70;20.50;;;;;;;;;;5094564;28;20938;-91
2021/08/04 12:41:56;;;;;;;22.53;21.03;;;;;;;;;;5095065;28;20936;-90
2021/08/04 12:44:24;;;;;;;21.60;20.40;;;;;;;;;;5095162;28;20415;-92
2021/08/04 12:46:51;;;;;;;22.53;21.13;;;;;;;;;;5096841;28;20560;-94
2021/08/04 12:49:23;;;;;;;23.40;21.73;;;;;;;;;;5096726;28;20515;-93
2021/08/04 12:51:55;;;;;;;21.97;20.67;;;;;;;;;;5096528;28;20424;-93
2021/08/04 12:54:30;;;;;;;21.70;20.50;;;;;;;;;;5095739;28;20480;-90
2021/08/04 12:56:58;;;;;;;23.60;22.10;;;;;;;;;;5095190;28;20476;-91
2021/08/04 12:59:41;;;;;;;24.90;22.67;;;;;;;;;;5095183;28;20450;-93
2021/08/04 13:02:11;;;;;;;23.30;21.90;;;;;;;;;;5094546;28;20505;-93
2021/08/04 13:04:41;;;;;;;23.33;22.03;;;;;;;;;;5096869;28;20530;-91
2021/08/04 13:07:09;;;;;;;24.73;23.13;;;;;;;;;;5095263;28;20448;-89
2021/08/04 13:09:53;;;;;;;22.07;20.87;;;;;;;;;;5093855;28;21035;-89
2021/08/04 13:12:22;;;;;;;22.83;21.53;;;;;;;;;;5093831;28;20986;-86
2021/08/04 13:14:57;;;;;;;24.13;22.53;;;;;;;;;;5092964;28;20439;-86
2021/08/04 13:17:25;;;;;;;28.30;26.20;;;;;;;;;;5094534;28;20441;-87
2021/08/04 13:20:02;;;;;;;32.90;30.40;;;;;;;;;;5094565;28;20873;-91
2021/08/04 13:22:30;;;;;;;32.83;29.60;;;;;;;;;;5094669;28;20427;-86
2021/08/04 13:25:08;;;;;;;31.00;28.80;;;;;;;;;;5094327;28;20441;-86
2021/08/04 13:27:36;;;;;;;33.13;30.73;;;;;;;;;;5093961;28;20435;-86
2021/08/04 13:30:16;;;;;;;32.57;30.37;;;;;;;;;;5093698;28;20433;-86
2021/08/04 13:32:44;;;;;;;37.27;33.90;;;;;;;;;;5094040;28;20417;-85
2021/08/04 13:35:11;;;;;;;38.53;35.30;;;;;;;;;;5094064;28;20481;-85
2021/08/04 13:37:38;;;;;;;35.20;32.83;;;;;;;;;;5093859;28;20426;-85
2021/08/04 13:40:08;;;;;;;44.53;41.30;;;;;;;;;;5094284;28;20436;-85
2021/08/04 13:42:36;;;;;;;42.03;39.33;;;;;;;;;;5093769;28;20438;-86
2021/08/04 13:45:04;;;;;;;38.13;36.13;;;;;;;;;;5093537;28;20473;-85
2021/08/04 13:47:32;;;;;;;37.30;35.20;;;;;;;;;;5093553;28;20492;-85
2021/08/04 13:50:04;;;;;;;39.80;37.60;;;;;;;;;;5095873;28;20442;-85
2021/08/04 13:52:31;;;;;;;38.07;35.87;;;;;;;;;;5097327;28;20517;-85
2021/08/04 13:54:59;;;;;;;39.60;37.40;;;;;;;;;;5097524;28;20843;-86
2021/08/04 13:57:28;;;;;;;38.30;36.40;;;;;;;;;;5096378;28;20449;-85
2021/08/04 13:59:55;;;;;;;38.43;36.63;;;;;;;;;;5097610;28;20446;-86
2021/08/04 14:02:23;;;;;;;34.93;33.17;;;;;;;;;;5098128;28;20449;-85
2021/08/04 14:04:50;;;;;;;36.07;34.27;;;;;;;;;;5097346;28;20446;-85
2021/08/04 14:07:18;;;;;;;34.43;32.93;;;;;;;;;;5097126;28;20465;-85
2021/08/04 14:09:47;;;;;;;34.97;33.27;;;;;;;;;;5096856;28;20457;-85
2021/08/04 14:12:14;;;;;;;32.63;31.03;;;;;;;;;;5097189;28;20422;-84
2021/08/04 14:14:43;;;;;;;33.70;32.10;;;;;;;;;;5096792;28;20982;-85
2021/08/04 14:17:11;;;;;;;32.87;31.20;;;;;;;;;;5097234;28;20433;-85
2021/08/04 14:19:38;;;;;;;32.80;31.30;;;;;;;;;;5097168;28;20866;-85
2021/08/04 14:22:05;;;;;;;31.50;29.87;;;;;;;;;;5096546;28;20430;-83
2021/08/04 14:24:33;;;;;;;27.40;26.20;;;;;;;;;;5096477;28;20912;-83
2021/08/04 14:27:00;;;;;;;24.70;23.70;;;;;;;;;;5096405;28;20549;-83